»·PEaware :: CFOOD CYBR-KRDR

CFOOD :: CYBR-KRDR

FLIGHT INFORMATION

Flight Status: Arrived
Operator: Unknown
More flights by this operator :: More flights under this callsign
Pilot: Vincent M. (370)
Aircraft: Unknown
(DA62)
More flights by this aircraft type
Origin: CYBR Brandon Muni
Canada
Destination: KRDR Grand Forks AFB
United States
More flights between these airports :: More routes between these airports
Route:
File this flight plan on PilotEdge
Remarks: KOSH LEG #4
Altitude:
(Current/Filed)
5,500ft
Speed:
(Current/Filed)
180kts
Departed: 21-Jul-20 08:02 PM
Arrived: 21-Jul-20 09:05 PM
Distance/Time
Traveled:
155nm/1:02
Distance/Time
To Go:
Arrived

Flight Plot

Page will automatically refresh every two minutes.


Map Options




Map Legend


Flown Route
Filed Route
Departure Airport
Arrival Airport
Navaid (VOR, NDB)
Fix

Horizontal Profiles

Position Reports

Time Latitude Longitude Heading Altitude Ground
Speed
21-Jul-20 19:54 49.905274 -99.942665 355 1344ft 0kts
21-Jul-20 19:55 49.905274 -99.942665 355 1344ft 0kts
21-Jul-20 19:56 49.905274 -99.942665 355 1344ft 0kts
21-Jul-20 19:57 49.905409 -99.945698 268 1344ft 26kts
21-Jul-20 19:58 49.905624 -99.948158 309 1344ft 6kts
21-Jul-20 19:59 49.907514 -99.955828 271 1344ft 24kts
21-Jul-20 20:00 49.907673 -99.965448 234 1344ft 17kts
21-Jul-20 20:01 49.907524 -99.945012 91 1421ft 104kts
21-Jul-20 20:02 49.902639 -99.897513 134 2369ft 119kts
21-Jul-20 20:03 49.870600 -99.880205 150 3374ft 124kts
21-Jul-20 20:04 49.841366 -99.850608 138 4298ft 130kts
21-Jul-20 20:05 49.813033 -99.814351 135 5198ft 134kts
21-Jul-20 20:06 49.782783 -99.773458 135 5503ft 157kts
21-Jul-20 20:07 49.748699 -99.726903 135 5499ft 166kts
21-Jul-20 20:08 49.713750 -99.679164 135 5499ft 168kts
21-Jul-20 20:09 49.678756 -99.631451 135 5499ft 168kts
21-Jul-20 20:10 49.643544 -99.583731 136 5499ft 168kts
21-Jul-20 20:11 49.608228 -99.536135 135 5499ft 168kts
21-Jul-20 20:12 49.573748 -99.489437 136 5514ft 168kts
21-Jul-20 20:13 49.538994 -99.442458 136 5565ft 166kts
21-Jul-20 20:14 49.504228 -99.395538 135 5583ft 167kts
21-Jul-20 20:15 49.469141 -99.348104 141 5584ft 169kts
21-Jul-20 20:16 49.433498 -99.300328 140 5583ft 170kts
21-Jul-20 20:17 49.401276 -99.257101 140 5583ft 170kts
21-Jul-20 20:18 49.365648 -99.209461 140 5583ft 168kts
21-Jul-20 20:19 49.335482 -99.169145 140 5583ft 167kts
21-Jul-20 20:20 49.300361 -99.122282 140 5583ft 167kts
21-Jul-20 20:22 49.265390 -99.075709 140 5583ft 167kts
21-Jul-20 20:23 49.230247 -99.028978 141 5594ft 167kts
21-Jul-20 20:24 49.195053 -98.982292 140 5594ft 168kts
21-Jul-20 20:25 49.159672 -98.935460 140 5594ft 168kts
21-Jul-20 20:26 49.133173 -98.900438 140 5594ft 168kts
21-Jul-20 20:27 49.097725 -98.853666 140 5594ft 169kts
21-Jul-20 20:28 49.062097 -98.806732 140 5594ft 169kts
21-Jul-20 20:29 49.026576 -98.760057 140 5594ft 169kts
21-Jul-20 20:30 48.990762 -98.713100 141 5509ft 172kts
21-Jul-20 20:31 48.954965 -98.666210 141 5502ft 168kts
21-Jul-20 20:32 48.919334 -98.619650 141 5462ft 168kts
21-Jul-20 20:33 48.884156 -98.573785 141 5464ft 166kts
21-Jul-20 20:34 48.848932 -98.527946 141 5464ft 166kts
21-Jul-20 20:35 48.813704 -98.482182 141 5464ft 166kts
21-Jul-20 20:36 48.778517 -98.436561 141 5464ft 166kts
21-Jul-20 20:37 48.743255 -98.390939 141 5464ft 166kts
21-Jul-20 20:38 48.708044 -98.345450 142 5463ft 166kts
21-Jul-20 20:38 48.678709 -98.307623 142 5463ft 166kts
21-Jul-20 20:39 48.643628 -98.262469 142 5463ft 166kts
21-Jul-20 20:40 48.608437 -98.217254 142 5463ft 166kts
21-Jul-20 20:42 48.566929 -98.164078 142 4858ft 168kts
21-Jul-20 20:42 48.537263 -98.126115 141 4021ft 166kts
21-Jul-20 20:43 48.502602 -98.081812 141 3519ft 162kts
21-Jul-20 20:44 48.468458 -98.038273 141 3518ft 160kts
21-Jul-20 20:45 48.434331 -97.994893 140 3509ft 161kts
21-Jul-20 20:46 48.399819 -97.951062 138 3509ft 163kts
21-Jul-20 20:47 48.364888 -97.906713 138 3509ft 164kts
21-Jul-20 20:48 48.329810 -97.862304 139 3518ft 165kts
21-Jul-20 20:49 48.294529 -97.817734 139 3520ft 166kts
21-Jul-20 20:50 48.259044 -97.772995 139 3522ft 167kts
21-Jul-20 20:51 48.223397 -97.728146 139 3523ft 168kts
21-Jul-20 20:52 48.206213 -97.666895 102 3525ft 165kts
21-Jul-20 20:53 48.194483 -97.599121 102 2718ft 169kts
21-Jul-20 20:54 48.183295 -97.531871 102 1920ft 152kts
21-Jul-20 20:55 48.168074 -97.479217 132 1918ft 139kts
21-Jul-20 20:56 48.141348 -97.437199 132 1902ft 140kts
21-Jul-20 20:57 48.111595 -97.404820 174 1974ft 117kts
21-Jul-20 20:58 48.082892 -97.401843 176 1910ft 103kts
21-Jul-20 20:59 48.054372 -97.400737 179 1619ft 101kts
21-Jul-20 21:00 48.026419 -97.400638 180 1364ft 100kts
21-Jul-20 21:01 47.998462 -97.400762 179 1119ft 96kts
21-Jul-20 21:02 47.972574 -97.400739 180 929ft 83kts
21-Jul-20 21:03 47.955132 -97.400806 180 917ft 46kts
21-Jul-20 21:04 47.953603 -97.395558 75 917ft 19kts
21-Jul-20 21:05 47.956544 -97.392892 15 917ft 0kts
21-Jul-20 21:06 47.956544 -97.392892 15 917ft 0kts

Navigation Log

Ident Type
Flight plan parsing failed, navigation log unavailable